sensor_id;sensor_type;location;lat;lon;timestamp;P1;durP1;ratioP1;P2;durP2;ratioP2
19621;SDS011;9958;33.196;-97.114;2022-11-11T00:01:18;10.20;;;6.03;;
19621;SDS011;9958;33.196;-97.114;2022-11-11T00:03:47;9.10;;;6.07;;
19621;SDS011;9958;33.196;-97.114;2022-11-11T00:06:15;11.15;;;5.93;;
19621;SDS011;9958;33.196;-97.114;2022-11-11T00:08:45;12.32;;;7.25;;
19621;SDS011;9958;33.196;-97.114;2022-11-11T00:11:14;15.63;;;8.27;;
19621;SDS011;9958;33.196;-97.114;2022-11-11T00:13:43;17.35;;;8.95;;
19621;SDS011;9958;33.196;-97.114;2022-11-11T00:16:13;13.88;;;8.30;;
19621;SDS011;9958;33.196;-97.114;2022-11-11T00:18:44;12.63;;;7.90;;
19621;SDS011;9958;33.196;-97.114;2022-11-11T00:21:29;9.88;;;6.43;;
19621;SDS011;9958;33.196;-97.114;2022-11-11T00:24:19;9.63;;;6.60;;
19621;SDS011;9958;33.196;-97.114;2022-11-11T00:27:06;11.65;;;7.60;;
19621;SDS011;9958;33.196;-97.114;2022-11-11T00:29:38;8.60;;;6.22;;
19621;SDS011;9958;33.196;-97.114;2022-11-11T00:32:07;7.72;;;5.88;;
19621;SDS011;9958;33.196;-97.114;2022-11-11T00:34:55;9.60;;;6.07;;
19621;SDS011;9958;33.196;-97.114;2022-11-11T00:37:41;8.50;;;5.57;;
19621;SDS011;9958;33.196;-97.114;2022-11-11T00:40:11;9.63;;;6.53;;
19621;SDS011;9958;33.196;-97.114;2022-11-11T00:42:39;9.65;;;6.05;;
19621;SDS011;9958;33.196;-97.114;2022-11-11T00:45:08;8.98;;;5.95;;
19621;SDS011;9958;33.196;-97.114;2022-11-11T00:47:37;8.48;;;5.95;;
19621;SDS011;9958;33.196;-97.114;2022-11-11T00:50:24;10.15;;;6.13;;
19621;SDS011;9958;33.196;-97.114;2022-11-11T00:53:12;10.82;;;5.60;;
19621;SDS011;9958;33.196;-97.114;2022-11-11T00:55:41;8.35;;;5.72;;
19621;SDS011;9958;33.196;-97.114;2022-11-11T00:58:09;9.50;;;5.97;;
19621;SDS011;9958;33.196;-97.114;2022-11-11T01:00:37;10.38;;;6.15;;
19621;SDS011;9958;33.196;-97.114;2022-11-11T01:03:06;7.78;;;5.68;;
19621;SDS011;9958;33.196;-97.114;2022-11-11T01:05:37;10.95;;;6.47;;
19621;SDS011;9958;33.196;-97.114;2022-11-11T01:08:05;9.35;;;6.72;;
19621;SDS011;9958;33.196;-97.114;2022-11-11T01:10:34;8.40;;;6.35;;
19621;SDS011;9958;33.196;-97.114;2022-11-11T01:13:14;8.85;;;5.82;;
19621;SDS011;9958;33.196;-97.114;2022-11-11T01:15:44;10.35;;;6.60;;
19621;SDS011;9958;33.196;-97.114;2022-11-11T01:18:14;10.75;;;6.65;;
19621;SDS011;9958;33.196;-97.114;2022-11-11T01:20:45;9.45;;;6.57;;
19621;SDS011;9958;33.196;-97.114;2022-11-11T01:23:13;8.90;;;6.40;;
19621;SDS011;9958;33.196;-97.114;2022-11-11T01:25:42;9.68;;;5.95;;
19621;SDS011;9958;33.196;-97.114;2022-11-11T01:28:10;8.35;;;6.47;;
19621;SDS011;9958;33.196;-97.114;2022-11-11T01:30:39;9.32;;;5.70;;
19621;SDS011;9958;33.196;-97.114;2022-11-11T01:33:08;10.05;;;6.40;;
19621;SDS011;9958;33.196;-97.114;2022-11-11T01:35:37;10.00;;;6.80;;
19621;SDS011;9958;33.196;-97.114;2022-11-11T01:38:08;10.43;;;7.03;;
19621;SDS011;9958;33.196;-97.114;2022-11-11T01:40:40;11.95;;;6.80;;
19621;SDS011;9958;33.196;-97.114;2022-11-11T01:43:19;10.43;;;6.78;;
19621;SDS011;9958;33.196;-97.114;2022-11-11T01:45:53;10.05;;;7.18;;
19621;SDS011;9958;33.196;-97.114;2022-11-11T01:48:26;12.13;;;6.80;;
19621;SDS011;9958;33.196;-97.114;2022-11-11T01:51:18;9.57;;;6.70;;
19621;SDS011;9958;33.196;-97.114;2022-11-11T01:53:53;11.23;;;7.28;;
19621;SDS011;9958;33.196;-97.114;2022-11-11T01:56:25;9.98;;;6.88;;
19621;SDS011;9958;33.196;-97.114;2022-11-11T01:58:53;7.65;;;5.93;;
19621;SDS011;9958;33.196;-97.114;2022-11-11T02:01:24;10.50;;;7.15;;
19621;SDS011;9958;33.196;-97.114;2022-11-11T02:03:53;9.48;;;5.88;;
19621;SDS011;9958;33.196;-97.114;2022-11-11T02:06:36;10.55;;;6.60;;
19621;SDS011;9958;33.196;-97.114;2022-11-11T02:09:07;8.07;;;6.18;;
19621;SDS011;9958;33.196;-97.114;2022-11-11T02:11:36;10.75;;;6.90;;
19621;SDS011;9958;33.196;-97.114;2022-11-11T02:14:23;9.38;;;6.45;;
19621;SDS011;9958;33.196;-97.114;2022-11-11T02:17:09;10.45;;;7.30;;
19621;SDS011;9958;33.196;-97.114;2022-11-11T02:19:43;10.80;;;7.25;;
19621;SDS011;9958;33.196;-97.114;2022-11-11T02:22:16;7.90;;;6.47;;
19621;SDS011;9958;33.196;-97.114;2022-11-11T02:24:52;8.98;;;6.10;;
19621;SDS011;9958;33.196;-97.114;2022-11-11T02:27:23;10.60;;;7.00;;
19621;SDS011;9958;33.196;-97.114;2022-11-11T02:29:54;10.43;;;6.63;;
19621;SDS011;9958;33.196;-97.114;2022-11-11T02:32:24;9.82;;;6.40;;
19621;SDS011;9958;33.196;-97.114;2022-11-11T02:34:52;10.43;;;6.82;;
19621;SDS011;9958;33.196;-97.114;2022-11-11T02:37:22;8.02;;;6.65;;
19621;SDS011;9958;33.196;-97.114;2022-11-11T02:39:56;10.63;;;7.15;;
19621;SDS011;9958;33.196;-97.114;2022-11-11T02:42:28;10.65;;;6.47;;
19621;SDS011;9958;33.196;-97.114;2022-11-11T02:44:56;9.90;;;6.80;;
19621;SDS011;9958;33.196;-97.114;2022-11-11T02:47:25;10.80;;;6.70;;
19621;SDS011;9958;33.196;-97.114;2022-11-11T02:49:53;9.55;;;6.63;;
19621;SDS011;9958;33.196;-97.114;2022-11-11T02:52:21;8.90;;;6.65;;
19621;SDS011;9958;33.196;-97.114;2022-11-11T02:54:50;9.65;;;6.70;;
19621;SDS011;9958;33.196;-97.114;2022-11-11T02:57:20;7.13;;;6.20;;
19621;SDS011;9958;33.196;-97.114;2022-11-11T02:59:48;8.73;;;6.82;;
19621;SDS011;9958;33.196;-97.114;2022-11-11T03:02:16;9.30;;;6.47;;
19621;SDS011;9958;33.196;-97.114;2022-11-11T03:04:45;11.20;;;6.80;;
19621;SDS011;9958;33.196;-97.114;2022-11-11T03:07:13;8.70;;;6.78;;
19621;SDS011;9958;33.196;-97.114;2022-11-11T03:09:41;10.38;;;6.50;;
19621;SDS011;9958;33.196;-97.114;2022-11-11T03:12:09;8.70;;;6.50;;
19621;SDS011;9958;33.196;-97.114;2022-11-11T03:14:39;9.38;;;5.97;;
19621;SDS011;9958;33.196;-97.114;2022-11-11T03:17:08;11.63;;;6.80;;
19621;SDS011;9958;33.196;-97.114;2022-11-11T03:19:53;7.47;;;6.35;;
19621;SDS011;9958;33.196;-97.114;2022-11-11T03:22:42;9.30;;;6.80;;
19621;SDS011;9958;33.196;-97.114;2022-11-11T03:25:09;10.90;;;6.70;;
19621;SDS011;9958;33.196;-97.114;2022-11-11T03:27:54;13.13;;;6.97;;
19621;SDS011;9958;33.196;-97.114;2022-11-11T03:30:24;10.70;;;7.15;;
19621;SDS011;9958;33.196;-97.114;2022-11-11T03:32:52;10.40;;;6.63;;
19621;SDS011;9958;33.196;-97.114;2022-11-11T03:35:20;8.55;;;6.88;;
19621;SDS011;9958;33.196;-97.114;2022-11-11T03:37:48;12.40;;;6.50;;
19621;SDS011;9958;33.196;-97.114;2022-11-11T03:40:34;9.23;;;6.57;;
19621;SDS011;9958;33.196;-97.114;2022-11-11T03:43:02;11.30;;;6.95;;
19621;SDS011;9958;33.196;-97.114;2022-11-11T03:45:32;9.32;;;6.28;;
19621;SDS011;9958;33.196;-97.114;2022-11-11T03:48:01;12.35;;;6.63;;
19621;SDS011;9958;33.196;-97.114;2022-11-11T03:50:30;8.63;;;6.07;;
19621;SDS011;9958;33.196;-97.114;2022-11-11T03:52:58;10.90;;;6.60;;
19621;SDS011;9958;33.196;-97.114;2022-11-11T03:55:27;9.93;;;7.10;;
19621;SDS011;9958;33.196;-97.114;2022-11-11T03:57:55;10.13;;;6.65;;
19621;SDS011;9958;33.196;-97.114;2022-11-11T04:00:24;8.15;;;6.50;;
19621;SDS011;9958;33.196;-97.114;2022-11-11T04:03:01;9.15;;;6.22;;
19621;SDS011;9958;33.196;-97.114;2022-11-11T04:05:48;8.15;;;5.85;;
19621;SDS011;9958;33.196;-97.114;2022-11-11T04:08:33;7.88;;;5.88;;
19621;SDS011;9958;33.196;-97.114;2022-11-11T04:11:19;9.68;;;6.05;;
19621;SDS011;9958;33.196;-97.114;2022-11-11T04:13:51;9.35;;;6.13;;
19621;SDS011;9958;33.196;-97.114;2022-11-11T04:16:38;11.30;;;5.75;;
19621;SDS011;9958;33.196;-97.114;2022-11-11T04:19:08;13.40;;;6.75;;
19621;SDS011;9958;33.196;-97.114;2022-11-11T04:21:53;10.40;;;5.90;;
19621;SDS011;9958;33.196;-97.114;2022-11-11T04:24:21;8.50;;;6.10;;
19621;SDS011;9958;33.196;-97.114;2022-11-11T04:27:07;10.77;;;6.70;;
19621;SDS011;9958;33.196;-97.114;2022-11-11T04:29:37;10.60;;;6.72;;
19621;SDS011;9958;33.196;-97.114;2022-11-11T04:32:05;8.95;;;6.22;;
19621;SDS011;9958;33.196;-97.114;2022-11-11T04:34:53;9.18;;;6.00;;
19621;SDS011;9958;33.196;-97.114;2022-11-11T04:37:22;10.30;;;6.05;;
19621;SDS011;9958;33.196;-97.114;2022-11-11T04:39:52;7.80;;;6.20;;
19621;SDS011;9958;33.196;-97.114;2022-11-11T04:42:38;8.93;;;5.97;;
19621;SDS011;9958;33.196;-97.114;2022-11-11T04:45:06;9.30;;;6.60;;
19621;SDS011;9958;33.196;-97.114;2022-11-11T04:47:56;9.57;;;5.70;;
19621;SDS011;9958;33.196;-97.114;2022-11-11T04:50:27;8.45;;;6.00;;
19621;SDS011;9958;33.196;-97.114;2022-11-11T04:52:56;9.68;;;6.15;;
19621;SDS011;9958;33.196;-97.114;2022-11-11T04:55:25;8.25;;;6.43;;
19621;SDS011;9958;33.196;-97.114;2022-11-11T04:58:10;11.02;;;6.10;;
19621;SDS011;9958;33.196;-97.114;2022-11-11T05:00:38;9.63;;;6.63;;
19621;SDS011;9958;33.196;-97.114;2022-11-11T05:03:09;9.60;;;5.65;;
19621;SDS011;9958;33.196;-97.114;2022-11-11T05:05:48;9.05;;;5.55;;
19621;SDS011;9958;33.196;-97.114;2022-11-11T05:08:34;7.57;;;5.40;;
19621;SDS011;9958;33.196;-97.114;2022-11-11T05:11:20;7.35;;;5.07;;
19621;SDS011;9958;33.196;-97.114;2022-11-11T05:13:49;8.40;;;5.85;;
19621;SDS011;9958;33.196;-97.114;2022-11-11T05:16:36;8.32;;;5.55;;
19621;SDS011;9958;33.196;-97.114;2022-11-11T05:19:23;9.57;;;5.95;;
19621;SDS011;9958;33.196;-97.114;2022-11-11T05:22:10;11.27;;;5.63;;
19621;SDS011;9958;33.196;-97.114;2022-11-11T05:24:42;8.40;;;6.13;;
19621;SDS011;9958;33.196;-97.114;2022-11-11T05:27:27;9.40;;;6.75;;
19621;SDS011;9958;33.196;-97.114;2022-11-11T05:29:55;9.57;;;5.40;;
19621;SDS011;9958;33.196;-97.114;2022-11-11T05:32:24;8.88;;;5.90;;
19621;SDS011;9958;33.196;-97.114;2022-11-11T05:34:52;12.25;;;5.53;;
19621;SDS011;9958;33.196;-97.114;2022-11-11T05:37:22;8.40;;;6.05;;
19621;SDS011;9958;33.196;-97.114;2022-11-11T05:39:50;6.82;;;5.72;;
19621;SDS011;9958;33.196;-97.114;2022-11-11T05:42:19;9.27;;;6.40;;
19621;SDS011;9958;33.196;-97.114;2022-11-11T05:44:47;10.50;;;5.95;;
19621;SDS011;9958;33.196;-97.114;2022-11-11T05:47:15;6.97;;;5.95;;
19621;SDS011;9958;33.196;-97.114;2022-11-11T05:49:44;6.57;;;5.40;;
19621;SDS011;9958;33.196;-97.114;2022-11-11T05:52:13;7.03;;;5.75;;
19621;SDS011;9958;33.196;-97.114;2022-11-11T05:54:43;7.18;;;5.88;;
19621;SDS011;9958;33.196;-97.114;2022-11-11T05:57:12;8.48;;;6.07;;
19621;SDS011;9958;33.196;-97.114;2022-11-11T05:59:41;7.78;;;5.32;;
19621;SDS011;9958;33.196;-97.114;2022-11-11T06:02:10;7.95;;;6.00;;
19621;SDS011;9958;33.196;-97.114;2022-11-11T06:04:38;7.18;;;5.70;;
19621;SDS011;9958;33.196;-97.114;2022-11-11T06:07:06;9.60;;;5.72;;
19621;SDS011;9958;33.196;-97.114;2022-11-11T06:09:34;8.55;;;5.75;;
19621;SDS011;9958;33.196;-97.114;2022-11-11T06:12:04;8.30;;;6.05;;
19621;SDS011;9958;33.196;-97.114;2022-11-11T06:14:33;12.43;;;6.15;;
19621;SDS011;9958;33.196;-97.114;2022-11-11T06:17:01;7.47;;;5.82;;
19621;SDS011;9958;33.196;-97.114;2022-11-11T06:19:29;8.68;;;5.30;;
19621;SDS011;9958;33.196;-97.114;2022-11-11T06:21:58;9.00;;;5.80;;
19621;SDS011;9958;33.196;-97.114;2022-11-11T06:24:28;7.30;;;6.13;;
19621;SDS011;9958;33.196;-97.114;2022-11-11T06:26:56;9.43;;;5.93;;
19621;SDS011;9958;33.196;-97.114;2022-11-11T06:29:26;10.68;;;6.38;;
19621;SDS011;9958;33.196;-97.114;2022-11-11T06:31:54;9.95;;;6.07;;
19621;SDS011;9958;33.196;-97.114;2022-11-11T06:34:23;7.72;;;5.82;;
19621;SDS011;9958;33.196;-97.114;2022-11-11T06:36:51;9.27;;;6.20;;
19621;SDS011;9958;33.196;-97.114;2022-11-11T06:39:19;7.47;;;5.15;;
19621;SDS011;9958;33.196;-97.114;2022-11-11T06:41:47;7.15;;;5.35;;
19621;SDS011;9958;33.196;-97.114;2022-11-11T06:44:15;6.28;;;5.15;;
19621;SDS011;9958;33.196;-97.114;2022-11-11T06:46:45;7.70;;;5.63;;
19621;SDS011;9958;33.196;-97.114;2022-11-11T06:49:14;6.60;;;5.60;;
19621;SDS011;9958;33.196;-97.114;2022-11-11T06:51:42;6.95;;;5.45;;
19621;SDS011;9958;33.196;-97.114;2022-11-11T06:54:10;6.07;;;5.47;;
19621;SDS011;9958;33.196;-97.114;2022-11-11T06:56:39;7.97;;;5.55;;
19621;SDS011;9958;33.196;-97.114;2022-11-11T06:59:07;8.75;;;6.20;;
19621;SDS011;9958;33.196;-97.114;2022-11-11T07:01:36;7.60;;;5.80;;
19621;SDS011;9958;33.196;-97.114;2022-11-11T07:04:05;9.93;;;5.72;;
19621;SDS011;9958;33.196;-97.114;2022-11-11T07:06:34;10.07;;;5.80;;
19621;SDS011;9958;33.196;-97.114;2022-11-11T07:09:02;7.28;;;6.07;;
19621;SDS011;9958;33.196;-97.114;2022-11-11T07:11:30;7.18;;;5.50;;
19621;SDS011;9958;33.196;-97.114;2022-11-11T07:13:58;10.18;;;6.10;;
19621;SDS011;9958;33.196;-97.114;2022-11-11T07:16:27;11.23;;;5.70;;
19621;SDS011;9958;33.196;-97.114;2022-11-11T07:18:55;8.50;;;5.35;;
19621;SDS011;9958;33.196;-97.114;2022-11-11T07:21:25;6.63;;;5.88;;
19621;SDS011;9958;33.196;-97.114;2022-11-11T07:23:53;10.10;;;6.28;;
19621;SDS011;9958;33.196;-97.114;2022-11-11T07:26:21;8.13;;;5.97;;
19621;SDS011;9958;33.196;-97.114;2022-11-11T07:28:49;8.02;;;5.45;;
19621;SDS011;9958;33.196;-97.114;2022-11-11T07:31:18;8.38;;;5.20;;
19621;SDS011;9958;33.196;-97.114;2022-11-11T07:33:46;8.40;;;5.45;;
19621;SDS011;9958;33.196;-97.114;2022-11-11T07:36:14;6.70;;;5.80;;
19621;SDS011;9958;33.196;-97.114;2022-11-11T07:38:44;10.77;;;5.55;;
19621;SDS011;9958;33.196;-97.114;2022-11-11T07:41:12;8.38;;;5.00;;
19621;SDS011;9958;33.196;-97.114;2022-11-11T07:43:40;6.43;;;5.10;;
19621;SDS011;9958;33.196;-97.114;2022-11-11T07:46:09;7.72;;;5.25;;
19621;SDS011;9958;33.196;-97.114;2022-11-11T07:48:37;9.52;;;5.15;;
19621;SDS011;9958;33.196;-97.114;2022-11-11T07:51:05;8.60;;;5.50;;
19621;SDS011;9958;33.196;-97.114;2022-11-11T07:53:33;6.50;;;5.60;;
19621;SDS011;9958;33.196;-97.114;2022-11-11T07:56:03;8.85;;;5.88;;
19621;SDS011;9958;33.196;-97.114;2022-11-11T07:58:32;12.50;;;6.22;;
19621;SDS011;9958;33.196;-97.114;2022-11-11T08:01:01;16.38;;;6.20;;
19621;SDS011;9958;33.196;-97.114;2022-11-11T08:03:29;14.90;;;7.32;;
19621;SDS011;9958;33.196;-97.114;2022-11-11T08:06:00;7.85;;;5.35;;
19621;SDS011;9958;33.196;-97.114;2022-11-11T08:08:29;5.72;;;4.32;;
19621;SDS011;9958;33.196;-97.114;2022-11-11T08:10:57;6.28;;;2.83;;
19621;SDS011;9958;33.196;-97.114;2022-11-11T08:13:27;4.40;;;2.75;;
19621;SDS011;9958;33.196;-97.114;2022-11-11T08:16:05;6.70;;;3.65;;
19621;SDS011;9958;33.196;-97.114;2022-11-11T08:18:34;5.15;;;3.53;;
19621;SDS011;9958;33.196;-97.114;2022-11-11T08:21:03;4.03;;;2.83;;
19621;SDS011;9958;33.196;-97.114;2022-11-11T08:23:32;2.85;;;2.35;;
19621;SDS011;9958;33.196;-97.114;2022-11-11T08:26:00;3.92;;;2.25;;
19621;SDS011;9958;33.196;-97.114;2022-11-11T08:28:32;3.42;;;1.77;;
19621;SDS011;9958;33.196;-97.114;2022-11-11T08:31:01;4.03;;;1.63;;
19621;SDS011;9958;33.196;-97.114;2022-11-11T08:33:29;1.33;;;1.23;;
19621;SDS011;9958;33.196;-97.114;2022-11-11T08:35:58;1.90;;;1.30;;
19621;SDS011;9958;33.196;-97.114;2022-11-11T08:38:28;1.05;;;1.05;;
19621;SDS011;9958;33.196;-97.114;2022-11-11T08:40:58;1.90;;;0.57;;
19621;SDS011;9958;33.196;-97.114;2022-11-11T08:43:26;2.17;;;0.77;;
19621;SDS011;9958;33.196;-97.114;2022-11-11T08:45:58;2.55;;;0.73;;
19621;SDS011;9958;33.196;-97.114;2022-11-11T08:48:28;5.65;;;0.70;;
19621;SDS011;9958;33.196;-97.114;2022-11-11T08:50:57;1.77;;;0.45;;
19621;SDS011;9958;33.196;-97.114;2022-11-11T08:53:25;2.42;;;0.47;;
19621;SDS011;9958;33.196;-97.114;2022-11-11T08:55:54;2.53;;;0.57;;
19621;SDS011;9958;33.196;-97.114;2022-11-11T08:58:22;1.30;;;0.50;;
19621;SDS011;9958;33.196;-97.114;2022-11-11T09:00:50;0.73;;;0.20;;
19621;SDS011;9958;33.196;-97.114;2022-11-11T09:03:20;1.00;;;0.30;;
19621;SDS011;9958;33.196;-97.114;2022-11-11T09:05:48;4.40;;;0.55;;
19621;SDS011;9958;33.196;-97.114;2022-11-11T09:08:17;0.55;;;0.40;;
19621;SDS011;9958;33.196;-97.114;2022-11-11T09:10:45;1.23;;;0.50;;
19621;SDS011;9958;33.196;-97.114;2022-11-11T09:13:13;2.30;;;0.47;;
19621;SDS011;9958;33.196;-97.114;2022-11-11T09:15:42;0.17;;;0.17;;
19621;SDS011;9958;33.196;-97.114;2022-11-11T09:18:10;1.83;;;0.47;;
19621;SDS011;9958;33.196;-97.114;2022-11-11T09:20:40;0.30;;;0.30;;
19621;SDS011;9958;33.196;-97.114;2022-11-11T09:23:08;0.10;;;0.10;;
19621;SDS011;9958;33.196;-97.114;2022-11-11T09:25:36;0.55;;;0.20;;
19621;SDS011;9958;33.196;-97.114;2022-11-11T09:28:04;0.30;;;0.30;;
19621;SDS011;9958;33.196;-97.114;2022-11-11T09:30:33;1.00;;;0.35;;
19621;SDS011;9958;33.196;-97.114;2022-11-11T09:33:01;0.10;;;0.10;;
19621;SDS011;9958;33.196;-97.114;2022-11-11T09:35:30;0.30;;;0.30;;
19621;SDS011;9958;33.196;-97.114;2022-11-11T09:37:59;0.20;;;0.20;;
19621;SDS011;9958;33.196;-97.114;2022-11-11T09:40:33;0.20;;;0.20;;
19621;SDS011;9958;33.196;-97.114;2022-11-11T09:43:13;0.10;;;0.10;;
19621;SDS011;9958;33.196;-97.114;2022-11-11T09:45:53;1.35;;;0.25;;
19621;SDS011;9958;33.196;-97.114;2022-11-11T09:48:33;0.20;;;0.20;;
19621;SDS011;9958;33.196;-97.114;2022-11-11T09:51:14;0.20;;;0.20;;
19621;SDS011;9958;33.196;-97.114;2022-11-11T09:53:49;0.10;;;0.10;;
19621;SDS011;9958;33.196;-97.114;2022-11-11T09:56:22;0.10;;;0.10;;
19621;SDS011;9958;33.196;-97.114;2022-11-11T09:58:52;0.10;;;0.10;;
19621;SDS011;9958;33.196;-97.114;2022-11-11T10:01:28;0.20;;;0.20;;
19621;SDS011;9958;33.196;-97.114;2022-11-11T10:04:04;0.10;;;0.10;;
19621;SDS011;9958;33.196;-97.114;2022-11-11T10:06:43;0.10;;;0.10;;
19621;SDS011;9958;33.196;-97.114;2022-11-11T10:09:17;0.20;;;0.20;;
19621;SDS011;9958;33.196;-97.114;2022-11-11T10:11:52;0.10;;;0.10;;
19621;SDS011;9958;33.196;-97.114;2022-11-11T10:14:28;0.20;;;0.20;;
19621;SDS011;9958;33.196;-97.114;2022-11-11T10:17:01;0.10;;;0.10;;
19621;SDS011;9958;33.196;-97.114;2022-11-11T10:19:39;0.17;;;0.17;;
19621;SDS011;9958;33.196;-97.114;2022-11-11T10:22:20;0.20;;;0.20;;
19621;SDS011;9958;33.196;-97.114;2022-11-11T10:24:56;0.10;;;0.10;;
19621;SDS011;9958;33.196;-97.114;2022-11-11T10:27:34;0.10;;;0.10;;
19621;SDS011;9958;33.196;-97.114;2022-11-11T10:30:06;1.40;;;0.10;;
19621;SDS011;9958;33.196;-97.114;2022-11-11T10:32:43;0.10;;;0.10;;
19621;SDS011;9958;33.196;-97.114;2022-11-11T10:35:16;0.10;;;0.10;;
19621;SDS011;9958;33.196;-97.114;2022-11-11T10:37:46;0.10;;;0.10;;
19621;SDS011;9958;33.196;-97.114;2022-11-11T10:40:26;0.10;;;0.10;;
19621;SDS011;9958;33.196;-97.114;2022-11-11T10:43:01;0.10;;;0.10;;
19621;SDS011;9958;33.196;-97.114;2022-11-11T10:45:30;0.10;;;0.10;;
19621;SDS011;9958;33.196;-97.114;2022-11-11T10:48:06;0.10;;;0.10;;
19621;SDS011;9958;33.196;-97.114;2022-11-11T10:50:38;0.17;;;0.17;;
19621;SDS011;9958;33.196;-97.114;2022-11-11T10:53:12;0.00;;;0.00;;
19621;SDS011;9958;33.196;-97.114;2022-11-11T10:55:45;0.20;;;0.20;;
19621;SDS011;9958;33.196;-97.114;2022-11-11T10:58:21;0.28;;;0.28;;
19621;SDS011;9958;33.196;-97.114;2022-11-11T11:00:54;0.20;;;0.20;;
19621;SDS011;9958;33.196;-97.114;2022-11-11T11:03:28;0.17;;;0.17;;
19621;SDS011;9958;33.196;-97.114;2022-11-11T11:06:02;0.10;;;0.10;;
19621;SDS011;9958;33.196;-97.114;2022-11-11T11:08:36;0.10;;;0.10;;
19621;SDS011;9958;33.196;-97.114;2022-11-11T11:11:12;0.10;;;0.10;;
19621;SDS011;9958;33.196;-97.114;2022-11-11T11:13:47;0.30;;;0.20;;
19621;SDS011;9958;33.196;-97.114;2022-11-11T11:16:19;0.10;;;0.10;;
19621;SDS011;9958;33.196;-97.114;2022-11-11T11:21:48;0.10;;;0.10;;
19621;SDS011;9958;33.196;-97.114;2022-11-11T11:24:21;0.10;;;0.10;;
19621;SDS011;9958;33.196;-97.114;2022-11-11T11:26:54;0.10;;;0.10;;
19621;SDS011;9958;33.196;-97.114;2022-11-11T11:29:23;0.47;;;0.20;;
19621;SDS011;9958;33.196;-97.114;2022-11-11T11:31:54;0.13;;;0.13;;
19621;SDS011;9958;33.196;-97.114;2022-11-11T11:34:47;0.10;;;0.10;;
19621;SDS011;9958;33.196;-97.114;2022-11-11T11:37:16;0.10;;;0.10;;
19621;SDS011;9958;33.196;-97.114;2022-11-11T11:39:46;0.22;;;0.22;;
19621;SDS011;9958;33.196;-97.114;2022-11-11T11:45:14;0.10;;;0.10;;
19621;SDS011;9958;33.196;-97.114;2022-11-11T11:47:48;1.02;;;0.20;;
19621;SDS011;9958;33.196;-97.114;2022-11-11T11:50:31;0.20;;;0.20;;
19621;SDS011;9958;33.196;-97.114;2022-11-11T11:53:10;0.28;;;0.28;;
19621;SDS011;9958;33.196;-97.114;2022-11-11T11:55:53;0.15;;;0.15;;
19621;SDS011;9958;33.196;-97.114;2022-11-11T11:58:32;0.10;;;0.10;;
19621;SDS011;9958;33.196;-97.114;2022-11-11T12:01:08;0.40;;;0.40;;
19621;SDS011;9958;33.196;-97.114;2022-11-11T12:03:53;0.20;;;0.20;;
19621;SDS011;9958;33.196;-97.114;2022-11-11T12:06:33;0.45;;;0.45;;
19621;SDS011;9958;33.196;-97.114;2022-11-11T12:09:12;0.30;;;0.30;;
19621;SDS011;9958;33.196;-97.114;2022-11-11T12:11:50;0.35;;;0.35;;
19621;SDS011;9958;33.196;-97.114;2022-11-11T12:14:31;0.38;;;0.30;;
19621;SDS011;9958;33.196;-97.114;2022-11-11T12:17:30;0.30;;;0.30;;
19621;SDS011;9958;33.196;-97.114;2022-11-11T12:20:10;0.52;;;0.40;;
19621;SDS011;9958;33.196;-97.114;2022-11-11T12:22:48;1.38;;;0.40;;
19621;SDS011;9958;33.196;-97.114;2022-11-11T12:25:27;0.40;;;0.40;;
19621;SDS011;9958;33.196;-97.114;2022-11-11T12:28:18;0.50;;;0.50;;
19621;SDS011;9958;33.196;-97.114;2022-11-11T12:31:00;0.50;;;0.50;;
19621;SDS011;9958;33.196;-97.114;2022-11-11T12:36:31;0.60;;;0.60;;
19621;SDS011;9958;33.196;-97.114;2022-11-11T12:39:04;0.50;;;0.50;;
19621;SDS011;9958;33.196;-97.114;2022-11-11T12:41:44;0.40;;;0.40;;
19621;SDS011;9958;33.196;-97.114;2022-11-11T12:44:19;0.35;;;0.35;;
19621;SDS011;9958;33.196;-97.114;2022-11-11T12:47:09;0.68;;;0.43;;
19621;SDS011;9958;33.196;-97.114;2022-11-11T12:49:53;1.13;;;0.57;;
19621;SDS011;9958;33.196;-97.114;2022-11-11T12:52:33;0.60;;;0.60;;
19621;SDS011;9958;33.196;-97.114;2022-11-11T12:55:11;1.65;;;0.50;;
19621;SDS011;9958;33.196;-97.114;2022-11-11T12:57:54;0.77;;;0.30;;
19621;SDS011;9958;33.196;-97.114;2022-11-11T13:00:47;0.40;;;0.40;;
19621;SDS011;9958;33.196;-97.114;2022-11-11T13:03:30;0.57;;;0.57;;
19621;SDS011;9958;33.196;-97.114;2022-11-11T13:06:12;1.65;;;0.40;;
19621;SDS011;9958;33.196;-97.114;2022-11-11T13:11:46;0.50;;;0.50;;
19621;SDS011;9958;33.196;-97.114;2022-11-11T13:14:34;0.25;;;0.25;;
19621;SDS011;9958;33.196;-97.114;2022-11-11T13:17:13;0.32;;;0.32;;
19621;SDS011;9958;33.196;-97.114;2022-11-11T13:19:44;0.30;;;0.30;;
19621;SDS011;9958;33.196;-97.114;2022-11-11T13:22:18;0.63;;;0.63;;
19621;SDS011;9958;33.196;-97.114;2022-11-11T13:24:49;0.60;;;0.40;;
19621;SDS011;9958;33.196;-97.114;2022-11-11T13:27:22;0.38;;;0.38;;
19621;SDS011;9958;33.196;-97.114;2022-11-11T13:30:06;0.38;;;0.38;;
19621;SDS011;9958;33.196;-97.114;2022-11-11T13:32:58;0.47;;;0.47;;
19621;SDS011;9958;33.196;-97.114;2022-11-11T13:35:32;1.60;;;0.70;;
19621;SDS011;9958;33.196;-97.114;2022-11-11T13:38:03;0.60;;;0.60;;
19621;SDS011;9958;33.196;-97.114;2022-11-11T13:40:36;0.38;;;0.38;;
19621;SDS011;9958;33.196;-97.114;2022-11-11T13:43:13;0.40;;;0.40;;
19621;SDS011;9958;33.196;-97.114;2022-11-11T13:45:48;0.80;;;0.50;;
19621;SDS011;9958;33.196;-97.114;2022-11-11T13:48:19;0.70;;;0.55;;
19621;SDS011;9958;33.196;-97.114;2022-11-11T13:50:53;0.45;;;0.45;;
19621;SDS011;9958;33.196;-97.114;2022-11-11T13:53:38;0.50;;;0.50;;
19621;SDS011;9958;33.196;-97.114;2022-11-11T13:56:08;0.40;;;0.40;;
19621;SDS011;9958;33.196;-97.114;2022-11-11T13:58:37;0.32;;;0.32;;
19621;SDS011;9958;33.196;-97.114;2022-11-11T14:01:12;0.30;;;0.30;;
19621;SDS011;9958;33.196;-97.114;2022-11-11T14:03:58;0.47;;;0.47;;
19621;SDS011;9958;33.196;-97.114;2022-11-11T14:06:33;0.40;;;0.40;;
19621;SDS011;9958;33.196;-97.114;2022-11-11T14:09:03;0.38;;;0.38;;
19621;SDS011;9958;33.196;-97.114;2022-11-11T14:11:33;0.82;;;0.82;;
19621;SDS011;9958;33.196;-97.114;2022-11-11T14:17:11;0.32;;;0.32;;
19621;SDS011;9958;33.196;-97.114;2022-11-11T14:19:41;0.50;;;0.50;;
19621;SDS011;9958;33.196;-97.114;2022-11-11T14:25:17;1.00;;;0.65;;
19621;SDS011;9958;33.196;-97.114;2022-11-11T14:27:50;0.50;;;0.50;;
19621;SDS011;9958;33.196;-97.114;2022-11-11T14:30:33;0.75;;;0.40;;
19621;SDS011;9958;33.196;-97.114;2022-11-11T14:33:05;0.40;;;0.40;;
19621;SDS011;9958;33.196;-97.114;2022-11-11T14:35:43;0.30;;;0.30;;
19621;SDS011;9958;33.196;-97.114;2022-11-11T14:38:28;1.05;;;0.70;;
19621;SDS011;9958;33.196;-97.114;2022-11-11T14:53:11;0.20;;;0.20;;
19621;SDS011;9958;33.196;-97.114;2022-11-11T14:55:45;1.30;;;0.65;;
19621;SDS011;9958;33.196;-97.114;2022-11-11T14:58:19;1.55;;;0.70;;
19621;SDS011;9958;33.196;-97.114;2022-11-11T15:00:51;2.72;;;0.43;;
19621;SDS011;9958;33.196;-97.114;2022-11-11T15:03:25;0.60;;;0.60;;
19621;SDS011;9958;33.196;-97.114;2022-11-11T15:05:58;0.70;;;0.70;;
19621;SDS011;9958;33.196;-97.114;2022-11-11T15:08:32;0.50;;;0.50;;
19621;SDS011;9958;33.196;-97.114;2022-11-11T15:11:15;0.57;;;0.57;;
19621;SDS011;9958;33.196;-97.114;2022-11-11T15:14:01;0.47;;;0.47;;
19621;SDS011;9958;33.196;-97.114;2022-11-11T15:16:48;0.60;;;0.60;;
19621;SDS011;9958;33.196;-97.114;2022-11-11T15:19:31;1.33;;;0.60;;
19621;SDS011;9958;33.196;-97.114;2022-11-11T15:22:20;0.45;;;0.45;;
19621;SDS011;9958;33.196;-97.114;2022-11-11T15:25:00;0.60;;;0.60;;
19621;SDS011;9958;33.196;-97.114;2022-11-11T15:27:44;0.70;;;0.70;;
19621;SDS011;9958;33.196;-97.114;2022-11-11T15:30:17;0.43;;;0.43;;
19621;SDS011;9958;33.196;-97.114;2022-11-11T15:32:54;0.68;;;0.68;;
19621;SDS011;9958;33.196;-97.114;2022-11-11T15:35:32;0.88;;;0.68;;
19621;SDS011;9958;33.196;-97.114;2022-11-11T15:38:03;0.60;;;0.60;;
19621;SDS011;9958;33.196;-97.114;2022-11-11T15:40:40;0.63;;;0.63;;